KWWR/WWR METAR and TAF weather

Enter ICAO airport designator
Station Type Date Time Source
KWWR METAR 2021/05/12 01:55 UTC NOAA

KWWR 120155Z AUTO 04005KT 10SM OVC050 10/04 A3026 RMK AO2


Station Type Date Time Source
KWWR Decoded METAR 2021/05/12 01:55 UTC NOAA

Woodward, West Woodward Airport, OK, United States (KWWR) 36-26-12N 099-31-16W 667M
May 11, 2021 - 09:55 PM EDT / 2021.05.12 0155 UTC
Wind: from the NE (040 degrees) at 6 MPH (5 KT):0
Visibility: 10 mile(s):0
Sky conditions: overcast
Temperature: 50 F (10 C)
Dew Point: 39 F (4 C)
Relative Humidity: 66%
Pressure (altimeter): 30.26 in. Hg (1024 hPa)
ob: KWWR 120155Z AUTO 04005KT 10SM OVC050 10/04 A3026 RMK AO2
cycle: 2

Station Type Date Time Source
KWWR TAF 2021/05/11 18:27 UTC NOAA

TAF KWWR 111724Z 1118/1218 06012KT P6SM SCT022 BKN027 OVC045
FM112000 05012KT P6SM OVC035
TEMPO 1212/1215 OVC010
FM121500 03007KT P6SM BKN035 BKN050

Example: see airport list